createdAt,value
2022-08-05T00:01:36.522Z,98149.13
2022-08-05T00:04:19.266Z,98152.84
2022-08-05T00:06:51.663Z,98152.44
2022-08-05T00:09:19.538Z,98151.50
2022-08-05T00:11:48.781Z,98146.81
2022-08-05T00:14:21.844Z,98148.25
2022-08-05T00:16:56.589Z,98145.28
2022-08-05T00:19:24.992Z,98143.88
2022-08-05T00:22:00.565Z,98142.63
2022-08-05T00:24:30.954Z,98147.03
2022-08-05T00:26:59.105Z,98139.34
2022-08-05T00:29:26.075Z,98135.25
2022-08-05T00:32:12.197Z,98139.19
2022-08-05T00:35:03.489Z,98134.25
2022-08-05T00:37:35.915Z,98133.41
2022-08-05T00:40:17.737Z,98129.56
2022-08-05T00:42:57.288Z,98131.75
2022-08-05T00:45:28.255Z,98133.00
2022-08-05T00:48:07.760Z,98126.75
2022-08-05T00:50:34.694Z,98125.34
2022-08-05T00:53:02.492Z,98121.88
2022-08-05T00:55:33.989Z,98121.25
2022-08-05T00:58:08.727Z,98118.28
2022-08-05T01:00:38.331Z,98113.44
2022-08-05T01:03:07.922Z,98113.59
2022-08-05T01:05:34.834Z,98112.50
2022-08-05T01:08:41.181Z,98112.84
2022-08-05T01:10:54.050Z,98110.03
2022-08-05T01:13:57.302Z,98111.47
2022-08-05T01:16:45.835Z,98109.72
2022-08-05T01:19:56.116Z,98109.94
2022-08-05T01:22:28.325Z,98100.53
2022-08-05T01:25:04.586Z,98104.44
2022-08-05T01:28:16.653Z,98112.91
2022-08-05T01:31:09.514Z,98105.22
2022-08-05T01:33:53.634Z,98104.13
2022-08-05T01:36:28.234Z,98104.13
2022-08-05T01:38:56.696Z,98104.28
2022-08-05T01:41:29.601Z,98097.56
2022-08-05T01:43:57.111Z,98103.66
2022-08-05T01:46:42.668Z,98098.66
2022-08-05T01:49:24.202Z,98098.03
2022-08-05T01:51:58.117Z,98104.78
2022-08-05T01:54:31.554Z,98103.19
2022-08-05T01:58:12.660Z,98104.44
2022-08-05T01:59:49.452Z,98104.59
2022-08-05T02:02:19.266Z,98112.44
2022-08-05T02:04:54.663Z,98109.63
2022-08-05T02:07:22.737Z,98110.53
2022-08-05T02:09:50.957Z,98113.06
2022-08-05T02:12:27.133Z,98106.03
2022-08-05T02:15:03.699Z,98107.13
2022-08-05T02:18:14.583Z,98114.97
2022-08-05T02:20:26.571Z,98109.78
2022-08-05T02:23:00.927Z,98105.75
2022-08-05T02:25:33.036Z,98113.59
2022-08-05T02:28:02.293Z,98107.00
2022-08-05T02:30:38.669Z,98114.69
2022-08-05T02:33:24.389Z,98112.47
2022-08-05T02:36:05.048Z,98116.25
2022-08-05T02:38:35.160Z,98110.91
2022-08-05T02:41:14.528Z,98112.00
2022-08-05T02:44:02.626Z,98118.13
2022-08-05T02:46:31.495Z,98111.38
2022-08-05T02:48:58.492Z,98108.88
2022-08-05T02:51:28.436Z,98115.16
2022-08-05T02:54:35.617Z,98101.06
2022-08-05T02:57:02.046Z,98101.38
2022-08-05T02:59:30.562Z,98102.94
2022-08-05T03:02:18.713Z,98110.13
2022-08-05T03:04:46.361Z,98101.53
2022-08-05T03:07:40.337Z,98099.50
2022-08-05T03:10:08.828Z,98104.03
2022-08-05T03:12:39.959Z,98116.09
2022-08-05T03:15:10.219Z,98202.06
2022-08-05T03:17:41.752Z,98137.44
2022-08-05T03:20:10.053Z,98206.00
2022-08-05T03:22:36.984Z,98177.22
2022-08-05T03:25:31.669Z,98172.84
2022-08-05T03:28:00.161Z,98155.69
2022-08-05T03:30:34.250Z,98165.72
2022-08-05T03:33:07.250Z,98161.97
2022-08-05T03:35:40.853Z,98147.16
2022-08-05T03:38:11.754Z,98166.72
2022-08-05T03:40:48.596Z,98158.94
2022-08-05T03:44:08.972Z,98145.78
2022-08-05T03:46:04.662Z,98161.31
2022-08-05T03:48:35.444Z,98157.69
2022-08-05T03:52:48.778Z,98157.88
2022-08-05T03:55:53.869Z,98159.28
2022-08-05T03:57:02.341Z,98162.59
2022-08-05T03:59:54.834Z,98167.91
2022-08-05T04:02:37.922Z,98177.94
2022-08-05T04:05:13.141Z,98168.53
2022-08-05T04:07:57.301Z,98173.56
2022-08-05T04:10:27.845Z,98176.53
2022-08-05T04:12:55.281Z,98168.88
2022-08-05T04:15:24.464Z,98158.84
2022-08-05T04:17:56.705Z,98157.09
2022-08-05T04:20:24.384Z,98156.81
2022-08-05T04:22:51.044Z,98161.50
2022-08-05T04:25:17.849Z,98164.47
2022-08-05T04:27:57.396Z,98166.50
2022-08-05T04:30:26.463Z,98169.63
2022-08-05T04:32:53.226Z,98172.13
2022-08-05T04:35:20.122Z,98171.34
2022-08-05T04:38:01.616Z,98182.13
2022-08-05T04:40:37.178Z,98175.06
2022-08-05T04:43:16.290Z,98178.66
2022-08-05T04:45:48.936Z,98179.94
2022-08-05T04:48:27.513Z,98177.72
2022-08-05T04:51:02.925Z,98175.69
2022-08-05T04:53:38.806Z,98176.66
2022-08-05T04:56:33.904Z,98182.88
2022-08-05T04:58:54.523Z,98195.56
2022-08-05T05:02:05.616Z,98193.00
2022-08-05T05:04:07.878Z,98196.16
2022-08-05T05:06:40.963Z,98190.66
2022-08-05T05:09:17.076Z,98197.84
2022-08-05T05:11:54.405Z,98207.91
2022-08-05T05:14:31.262Z,98207.38
2022-08-05T05:16:59.956Z,98214.56
2022-08-05T05:19:36.546Z,98229.31
2022-08-05T05:22:24.453Z,98243.16
2022-08-05T05:24:58.091Z,98259.44
2022-08-05T05:27:44.348Z,98261.84
2022-08-05T05:30:31.087Z,98259.41
2022-08-05T05:33:16.119Z,98252.84
2022-08-05T05:35:45.258Z,98249.47
2022-08-05T05:38:13.844Z,98233.91
2022-08-05T05:40:48.328Z,98244.91
2022-08-05T05:43:27.961Z,98241.38
2022-08-05T05:46:05.213Z,98241.06
2022-08-05T05:48:34.578Z,98243.28
2022-08-05T05:51:14.987Z,98255.81
2022-08-05T05:53:54.496Z,98273.06
2022-08-05T05:56:31.598Z,98268.81
2022-08-05T05:59:03.164Z,98273.50
2022-08-05T06:01:37.118Z,98275.22
2022-08-05T06:04:07.172Z,98298.31
2022-08-05T06:06:34.986Z,98318.47
2022-08-05T06:09:03.206Z,98346.56
2022-08-05T06:11:31.271Z,98364.31
2022-08-05T06:13:58.135Z,98351.00
2022-08-05T06:16:36.804Z,98347.66
2022-08-05T06:19:05.381Z,98358.69
2022-08-05T06:21:36.645Z,98365.75
2022-08-05T06:24:11.549Z,98358.38
2022-08-05T06:26:39.954Z,98371.38
2022-08-05T06:29:25.221Z,98382.34
2022-08-05T06:32:05.649Z,98384.84
2022-08-05T06:34:48.209Z,98391.41
2022-08-05T06:37:55.895Z,98388.94
2022-08-05T06:40:10.318Z,98403.97
2022-08-05T06:42:37.657Z,98407.56
2022-08-05T06:45:08.607Z,98405.06
2022-08-05T06:48:37.219Z,98407.41
2022-08-05T06:50:22.055Z,98404.72
2022-08-05T06:52:58.879Z,98419.78
2022-08-05T06:55:36.200Z,98419.97
2022-08-05T06:58:20.585Z,98417.66
2022-08-05T07:00:50.852Z,98425.34
2022-08-05T07:03:17.774Z,98427.41
2022-08-05T07:05:46.190Z,98430.03
2022-08-05T07:08:13.480Z,98442.25
2022-08-05T07:10:53.340Z,98447.09
2022-08-05T07:13:59.549Z,98437.78
2022-08-05T07:17:59.948Z,98442.09
2022-08-05T07:22:28.154Z,98453.72
2022-08-05T07:25:21.826Z,98445.25
2022-08-05T07:27:59.532Z,98432.22
2022-08-05T07:30:38.532Z,98431.44
2022-08-05T07:33:09.540Z,98433.13
2022-08-05T07:36:03.318Z,98439.03
2022-08-05T07:38:32.221Z,98440.78
2022-08-05T07:42:09.286Z,98438.63
2022-08-05T07:44:00.522Z,98448.41
2022-08-05T07:46:30.658Z,98459.69
2022-08-05T07:49:01.549Z,98449.75
2022-08-05T07:51:41.008Z,98449.72
2022-08-05T07:54:23.319Z,98457.88
2022-08-05T07:57:41.820Z,98475.75
2022-08-05T08:00:11.472Z,98471.22
2022-08-05T08:03:14.129Z,98468.13
2022-08-05T08:05:26.820Z,98462.94
2022-08-05T08:10:48.842Z,98450.81
2022-08-05T08:13:16.003Z,98446.97
2022-08-05T08:16:49.761Z,98451.72
2022-08-05T08:18:35.659Z,98452.78
2022-08-05T08:21:05.538Z,98448.78
2022-08-05T08:24:01.884Z,98455.34
2022-08-05T08:26:27.079Z,98466.72
2022-08-05T08:28:59.736Z,98463.75
2022-08-05T08:31:45.236Z,98464.38
2022-08-05T08:34:11.934Z,98461.81
2022-08-05T08:36:48.856Z,98460.34
2022-08-05T08:39:21.695Z,98461.81
2022-08-05T08:41:52.244Z,98466.53
2022-08-05T08:45:22.721Z,98468.44
2022-08-05T08:47:47.118Z,98473.56
2022-08-05T08:50:31.645Z,98472.53
2022-08-05T08:53:14.322Z,98473.56
2022-08-05T08:56:04.459Z,98473.72
2022-08-05T08:58:48.581Z,98490.84
2022-08-05T09:01:18.042Z,98487.69
2022-08-05T09:03:57.391Z,98493.91
2022-08-05T09:06:30.544Z,98489.16
2022-08-05T09:09:03.891Z,98484.06
2022-08-05T09:11:51.884Z,98475.16
2022-08-05T09:14:58.633Z,98471.78
2022-08-05T09:17:40.040Z,98477.03
2022-08-05T09:20:02.482Z,98471.06
2022-08-05T09:23:09.571Z,98472.28
2022-08-05T09:26:00.857Z,98476.25
2022-08-05T09:28:32.462Z,98465.94
2022-08-05T09:31:23.483Z,98462.16
2022-08-05T09:34:04.356Z,98455.31
2022-08-05T09:36:55.011Z,98456.75
2022-08-05T09:39:41.268Z,98458.19
2022-08-05T09:42:17.442Z,98445.06
2022-08-05T09:44:51.889Z,98447.81
2022-08-05T09:47:21.375Z,98449.53
2022-08-05T09:50:02.337Z,98446.50
2022-08-05T09:52:34.898Z,98445.97
2022-08-05T09:55:55.278Z,98436.84
2022-08-05T09:57:54.400Z,98435.25
2022-08-05T10:00:26.479Z,98437.31
2022-08-05T10:02:59.173Z,98426.22
2022-08-05T10:05:52.942Z,98429.28
2022-08-05T10:08:36.277Z,98424.66
2022-08-05T10:11:31.359Z,98424.75
2022-08-05T10:14:25.053Z,98414.06
2022-08-05T10:16:57.364Z,98414.13
2022-08-05T10:20:02.800Z,98419.53
2022-08-05T10:22:15.773Z,98417.09
2022-08-05T10:24:56.859Z,98420.81
2022-08-05T10:27:26.341Z,98427.84
2022-08-05T10:32:46.844Z,98425.69
2022-08-05T10:33:01.940Z,98429.28
2022-08-05T10:35:33.747Z,98422.94
2022-08-05T10:38:08.590Z,98415.28
2022-08-05T10:40:46.540Z,98422.75
2022-08-05T10:43:35.548Z,98412.19
2022-08-05T10:46:10.793Z,98414.31
2022-08-05T10:48:57.013Z,98408.03
2022-08-05T10:51:29.744Z,98401.75
2022-08-05T10:54:01.603Z,98409.75
2022-08-05T10:56:52.702Z,98406.31
2022-08-05T11:00:02.414Z,98404.03
2022-08-05T11:02:37.470Z,98404.47
2022-08-05T11:05:06.495Z,98396.88
2022-08-05T11:08:02.508Z,98395.22
2022-08-05T11:10:27.171Z,98399.59
2022-08-05T11:12:56.002Z,98401.59
2022-08-05T11:16:01.007Z,98405.22
2022-08-05T11:18:27.470Z,98422.09
2022-08-05T11:21:00.010Z,98402.47
2022-08-05T11:24:04.719Z,98418.38
2022-08-05T11:26:38.189Z,98417.88
2022-08-05T11:29:12.729Z,98409.78
2022-08-05T11:31:57.406Z,98404.06
2022-08-05T11:34:51.393Z,98404.22
2022-08-05T11:38:30.407Z,98388.84
2022-08-05T11:41:01.778Z,98399.72
2022-08-05T11:44:05.460Z,98395.34
2022-08-05T11:47:09.579Z,98405.13
2022-08-05T11:49:27.090Z,98396.16
2022-08-05T11:52:08.681Z,98387.91
2022-08-05T11:54:40.650Z,98390.50
2022-08-05T11:57:26.074Z,98392.66
2022-08-05T12:00:01.357Z,98392.59
2022-08-05T12:02:33.744Z,98391.06
2022-08-05T12:05:18.156Z,98387.06
2022-08-05T12:08:10.228Z,98394.63
2022-08-05T12:10:38.454Z,98386.09
2022-08-05T12:13:13.967Z,98381.91
2022-08-05T12:15:45.108Z,98383.53
2022-08-05T12:18:20.567Z,98375.72
2022-08-05T12:20:51.031Z,98385.44
2022-08-05T12:23:18.292Z,98385.03
2022-08-05T12:25:57.263Z,98395.00
2022-08-05T12:28:37.052Z,98385.81
2022-08-05T12:31:04.962Z,98389.22
2022-08-05T12:33:36.229Z,98381.09
2022-08-05T12:36:08.196Z,98377.19
2022-08-05T12:38:41.091Z,98378.28
2022-08-05T12:41:13.516Z,98374.84
2022-08-05T12:43:55.309Z,98387.19
2022-08-05T12:46:42.032Z,98389.75
2022-08-05T12:49:14.868Z,98390.94
2022-08-05T12:52:13.079Z,98386.34
2022-08-05T12:54:35.661Z,98373.47
2022-08-05T12:57:09.318Z,98366.53
2022-08-05T13:01:59.783Z,98362.84
2022-08-05T13:02:41.480Z,98365.56
2022-08-05T13:05:11.177Z,98361.34
2022-08-05T13:07:59.992Z,98365.16
2022-08-05T13:10:28.766Z,98356.38
2022-08-05T13:12:58.089Z,98354.44
2022-08-05T13:15:42.076Z,98354.06
2022-08-05T13:18:20.602Z,98349.41
2022-08-05T13:20:49.266Z,98355.94
2022-08-05T13:23:18.085Z,98345.13
2022-08-05T13:25:52.120Z,98349.41
2022-08-05T13:28:27.469Z,98348.63
2022-08-05T13:30:54.135Z,98344.00
2022-08-05T13:34:21.709Z,98346.31
2022-08-05T13:36:10.767Z,98337.00
2022-08-05T13:38:42.164Z,98337.03
2022-08-05T13:41:12.245Z,98337.34
2022-08-05T13:43:44.853Z,98334.59
2022-08-05T13:46:50.792Z,98337.69
2022-08-05T13:49:10.457Z,98319.53
2022-08-05T13:51:40.970Z,98316.78
2022-08-05T13:54:12.752Z,98324.19
2022-08-05T13:56:45.103Z,98318.00
2022-08-05T13:59:24.963Z,98313.75
2022-08-05T14:01:58.628Z,98315.34
2022-08-05T14:05:00.606Z,98316.09
2022-08-05T14:08:03.039Z,98309.91
2022-08-05T14:10:18.964Z,98317.66
2022-08-05T14:12:48.620Z,98314.50
2022-08-05T14:16:07.160Z,98323.81
2022-08-05T14:18:03.948Z,98309.91
2022-08-05T14:20:31.907Z,98311.47
2022-08-05T14:23:00.193Z,98310.66
2022-08-05T14:25:28.560Z,98319.19
2022-08-05T14:27:58.490Z,98311.06
2022-08-05T14:30:26.684Z,98307.19
2022-08-05T14:32:54.724Z,98302.91
2022-08-05T14:35:50.556Z,98316.44
2022-08-05T14:38:32.457Z,98310.25
2022-08-05T14:41:05.925Z,98318.75
2022-08-05T14:43:57.798Z,98318.78
2022-08-05T14:46:28.316Z,98321.13
2022-08-05T14:48:56.770Z,98313.75
2022-08-05T14:51:24.153Z,98309.91
2022-08-05T14:54:26.450Z,98309.13
2022-08-05T14:56:44.307Z,98309.16
2022-08-05T14:59:18.469Z,98313.00
2022-08-05T15:01:50.217Z,98314.91
2022-08-05T15:04:20.518Z,98319.19
2022-08-05T15:06:51.184Z,98318.81
2022-08-05T15:09:51.942Z,98328.47
2022-08-05T15:12:09.449Z,98327.28
2022-08-05T15:14:48.025Z,98336.97
2022-08-05T15:17:44.930Z,98331.16
2022-08-05T15:20:06.223Z,98336.97
2022-08-05T15:22:37.052Z,98335.00
2022-08-05T15:25:11.522Z,98343.53
2022-08-05T15:27:42.702Z,98342.75
2022-08-05T15:30:11.073Z,98342.03
2022-08-05T15:32:42.431Z,98341.50
2022-08-05T15:35:12.743Z,98344.25
2022-08-05T15:38:34.337Z,98355.34
2022-08-05T15:41:00.213Z,98347.72
2022-08-05T15:43:20.615Z,98346.66
2022-08-05T15:46:00.443Z,98351.06
2022-08-05T15:48:30.470Z,98345.88
2022-08-05T15:51:07.680Z,98352.78
2022-08-05T15:53:50.318Z,98349.78
2022-08-05T15:56:19.258Z,98354.47
2022-08-05T15:58:46.415Z,98356.50
2022-08-05T16:01:20.049Z,98354.97
2022-08-05T16:03:48.338Z,98362.50
2022-08-05T16:06:19.673Z,98354.81
2022-08-05T16:08:51.098Z,98362.00
2022-08-05T16:11:40.085Z,98363.34
2022-08-05T16:14:07.402Z,98371.09
2022-08-05T16:16:41.987Z,98371.09
2022-08-05T16:19:25.244Z,98379.53
2022-08-05T16:22:15.676Z,98383.53
2022-08-05T16:29:37.436Z,98407.63
2022-08-05T16:32:15.435Z,98400.03
2022-08-05T16:35:02.926Z,98405.66
2022-08-05T16:38:24.586Z,98409.75
2022-08-05T16:42:15.179Z,98411.38
2022-08-05T16:46:57.111Z,98413.97
2022-08-05T16:49:51.113Z,98419.63
2022-08-05T16:52:45.266Z,98422.03
2022-08-05T16:55:49.665Z,98421.19
2022-08-05T16:58:19.944Z,98419.78
2022-08-05T17:00:57.064Z,98418.66
2022-08-05T17:03:38.100Z,98423.78
2022-08-05T17:06:16.868Z,98419.44
2022-08-05T17:08:54.714Z,98431.03
2022-08-05T17:11:29.882Z,98415.28
2022-08-05T17:14:06.237Z,98424.38
2022-08-05T17:24:05.904Z,98426.19
2022-08-05T17:26:31.846Z,98442.06
2022-08-05T17:29:41.230Z,98434.88
2022-08-05T17:32:35.307Z,98441.72
2022-08-05T17:38:51.421Z,98453.47
2022-08-05T17:42:18.620Z,98448.91
2022-08-05T17:44:05.494Z,98450.09
2022-08-05T17:46:39.196Z,98461.47
2022-08-05T17:49:10.128Z,98456.31
2022-08-05T17:51:40.456Z,98459.19
2022-08-05T17:54:07.939Z,98466.75
2022-08-05T17:56:40.776Z,98475.78
2022-08-05T17:59:21.023Z,98482.50
2022-08-05T18:01:54.648Z,98484.78
2022-08-05T18:04:27.766Z,98509.88
2022-08-05T18:07:12.322Z,98512.56
2022-08-05T18:10:21.260Z,98513.59
2022-08-05T18:12:42.822Z,98513.53
2022-08-05T18:15:09.999Z,98524.47
2022-08-05T18:17:59.099Z,98517.88
2022-08-05T18:20:33.060Z,98519.81
2022-08-05T18:23:11.263Z,98522.38
2022-08-05T18:25:45.595Z,98519.97
2022-08-05T18:28:16.883Z,98527.66
2022-08-05T18:30:45.464Z,98523.31
2022-08-05T18:33:23.121Z,98521.88
2022-08-05T18:36:03.570Z,98522.19
2022-08-05T18:38:37.476Z,98528.09
2022-08-05T18:41:57.704Z,98535.41
2022-08-05T18:44:06.419Z,98529.28
2022-08-05T18:46:34.669Z,98533.94
2022-08-05T18:49:21.225Z,98543.97
2022-08-05T18:52:08.876Z,98541.00
2022-08-05T18:54:41.454Z,98549.84
2022-08-05T18:57:17.236Z,98552.38
2022-08-05T19:00:02.524Z,98554.53
2022-08-05T19:02:31.269Z,98558.97
2022-08-05T19:05:02.057Z,98553.09
2022-08-05T19:07:48.154Z,98564.81
2022-08-05T19:10:28.011Z,98570.41
2022-08-05T19:12:56.054Z,98578.31
2022-08-05T19:15:56.698Z,98585.06
2022-08-05T19:18:13.564Z,98587.38
2022-08-05T19:20:55.783Z,98605.22
2022-08-05T19:24:06.997Z,98605.22
2022-08-05T19:26:11.355Z,98619.22
2022-08-05T19:28:42.194Z,98629.25
2022-08-05T19:31:13.377Z,98631.78
2022-08-05T19:33:48.537Z,98634.09
2022-08-05T19:36:25.531Z,98639.72
2022-08-05T19:39:00.748Z,98640.19
2022-08-05T19:42:05.478Z,98648.13
2022-08-05T19:44:44.926Z,98649.50
2022-08-05T19:47:15.141Z,98652.78
2022-08-05T19:49:51.212Z,98672.78
2022-08-05T19:52:40.522Z,98676.56
2022-08-05T19:56:14.765Z,98678.38
2022-08-05T19:58:19.454Z,98679.31
2022-08-05T20:00:46.547Z,98685.94
2022-08-05T20:03:41.255Z,98677.88
2022-08-05T20:06:15.507Z,98682.22
2022-08-05T20:08:47.499Z,98685.09
2022-08-05T20:11:20.137Z,98683.41
2022-08-05T20:13:58.599Z,98688.28
2022-08-05T20:16:37.724Z,98695.66
2022-08-05T20:19:07.206Z,98699.78
2022-08-05T20:21:41.109Z,98715.97
2022-08-05T20:24:11.461Z,98724.88
2022-08-05T20:26:38.354Z,98732.38
2022-08-05T20:29:26.727Z,98730.47
2022-08-05T20:32:01.465Z,98735.16
2022-08-05T20:34:37.860Z,98735.31
2022-08-05T20:37:05.241Z,98717.38
2022-08-05T20:39:51.695Z,98727.84
2022-08-05T20:42:21.763Z,98735.03
2022-08-05T20:44:51.824Z,98730.31
2022-08-05T20:47:19.113Z,98738.84
2022-08-05T20:49:58.542Z,98729.28
2022-08-05T20:52:26.232Z,98723.88
2022-08-05T20:54:59.646Z,98727.59
2022-08-05T20:57:43.788Z,98735.34
2022-08-05T21:00:40.377Z,98754.28
2022-08-05T21:03:07.905Z,98757.38
2022-08-05T21:05:47.791Z,98773.91
2022-08-05T21:08:20.979Z,98789.16
2022-08-05T21:10:53.900Z,98829.81
2022-08-05T21:13:26.600Z,98858.09
2022-08-05T21:16:07.521Z,98847.31
2022-08-05T21:18:34.394Z,98789.88
2022-08-05T21:21:02.549Z,98785.41
2022-08-05T21:23:29.126Z,98803.56
2022-08-05T21:26:04.218Z,98824.47
2022-08-05T21:28:48.056Z,98846.34
2022-08-05T21:31:18.122Z,98854.59
2022-08-05T21:33:47.805Z,98856.47
2022-08-05T21:36:27.569Z,98841.38
2022-08-05T21:38:56.920Z,98834.47
2022-08-05T21:41:26.046Z,98828.91
2022-08-05T21:44:01.464Z,98841.06
2022-08-05T21:46:28.684Z,98843.44
2022-08-05T21:48:56.721Z,98841.59
2022-08-05T21:52:15.688Z,98837.38
2022-08-05T21:54:10.086Z,98852.19
2022-08-05T21:56:44.526Z,98855.63
2022-08-05T21:59:22.735Z,98861.44
2022-08-05T22:01:54.541Z,98849.53
2022-08-05T22:04:21.465Z,98860.34
2022-08-05T22:06:52.159Z,98874.94
2022-08-05T22:09:21.571Z,98870.75
2022-08-05T22:11:49.020Z,98880.25
2022-08-05T22:14:35.743Z,98891.84
2022-08-05T22:17:07.128Z,98886.56
2022-08-05T22:20:02.724Z,98891.63
2022-08-05T22:22:27.026Z,98889.75
2022-08-05T22:25:21.646Z,98890.81
2022-08-05T22:28:10.897Z,98899.03
2022-08-05T22:30:56.462Z,98890.03
2022-08-05T22:33:57.973Z,98883.97
2022-08-05T22:36:14.482Z,98885.53
2022-08-05T22:38:41.532Z,98885.00
2022-08-05T22:41:10.129Z,98883.16
2022-08-05T22:43:38.107Z,98892.69
2022-08-05T22:46:23.139Z,98917.00
2022-08-05T22:48:56.210Z,98912.50
2022-08-05T22:52:02.629Z,98911.44
2022-08-05T22:54:09.161Z,98909.84
2022-08-05T22:56:35.798Z,98922.78
2022-08-05T22:59:44.140Z,98936.28
2022-08-05T23:02:05.536Z,98957.13
2022-08-05T23:04:34.540Z,98971.94
2022-08-05T23:07:01.366Z,98989.06
2022-08-05T23:09:57.307Z,99024.97
2022-08-05T23:12:17.727Z,99052.22
2022-08-05T23:14:44.847Z,99043.59
2022-08-05T23:17:24.276Z,99001.59
2022-08-05T23:20:00.231Z,98996.09
2022-08-05T23:22:28.153Z,98994.81
2022-08-05T23:24:55.402Z,99009.59
2022-08-05T23:27:22.746Z,99005.88
2022-08-05T23:29:50.765Z,99004.78
2022-08-05T23:32:22.525Z,99018.22
2022-08-05T23:34:49.920Z,99026.97
2022-08-05T23:37:17.551Z,99035.69
2022-08-05T23:39:53.449Z,99035.41
2022-08-05T23:42:23.594Z,99045.47
2022-08-05T23:44:56.368Z,99035.63
2022-08-05T23:47:25.047Z,99045.31
2022-08-05T23:49:52.200Z,99041.31
2022-08-05T23:52:32.563Z,99044.47
2022-08-05T23:55:09.128Z,99044.56
2022-08-05T23:57:36.409Z,99046.19
